Osman Prince — D6A2040 — position and weather

sailwx.info

Track history (hours):
 
Tides and Currents Weather Stations Pressure Air Temp Water Temp Dewpoint Dewpoint Depression Visibility Wind Speed Wind Dir Waves Ship Positions

Osman Prince

Last reported at 2018-Feb-13 09:08 UTC. Time now 2018-Feb-20 07:38 UTC.
Position N 46°33' E 032°17'.

Length 151 m; draft 6 m.

MMSI: 620040000.

Date/timePositionNaut miles runAvg speedWind from/ knotsBaromVisibWave heightAir tempDewpointWater temp
2018-Feb-13 09:08N 46°33' E 032°17'2 9.7
2018-Feb-13 08:55N 46°33' E 032°14'511.4
2018-Feb-13 08:30N 46°32' E 032°07'611.2
2018-Feb-13 08:00N 46°33' E 031°59'611.4
2018-Feb-13 07:31N 46°35' E 031°51'611.2
2018-Feb-13 07:00N 46°36' E 031°43'2411.4
2018-Feb-13 04:55N 46°35' E 031°09'511.7
2018-Feb-13 04:30N 46°34' E 031°02'4 8.9
2018-Feb-13 04:00N 46°31' E 030°57'5 9.5
2018-Feb-13 03:30N 46°26' E 030°58'4 8.2
2018-Feb-13 03:00N 46°22' E 031°00'1 1.2
2018-Feb-13 02:30N 46°22' E 031°01'0 0.0
2018-Feb-13 00:48N 46°22' E 031°01'0 0.0
2018-Feb-12 23:56N 46°22' E 031°01'0 0.0
2018-Feb-12 22:02N 46°22' E 031°01'0 0.0
2018-Feb-12 20:47N 46°22' E 031°01'0 0.0
2018-Feb-12 20:29N 46°22' E 031°01'0 0.0
2018-Feb-12 19:56N 46°22' E 031°01'0 0.0
2018-Feb-12 18:17N 46°22' E 031°01'0 0.0
2018-Feb-12 16:59N 46°22' E 031°01'0 0.0
2018-Feb-12 16:29N 46°22' E 031°01'0 0.0
2018-Feb-12 15:50N 46°22' E 031°01'0 0.0
2018-Feb-12 15:17N 46°22' E 031°01'0 0.0
2018-Feb-12 14:56N 46°22' E 031°01'0 0.0
2018-Feb-12 14:29N 46°22' E 031°01'0 0.0
2018-Feb-12 13:56N 46°22' E 031°01'0 0.0
2018-Feb-12 13:29N 46°22' E 031°01'0 0.0
2018-Feb-12 12:59N 46°22' E 031°01'0 0.0
2018-Feb-12 12:11N 46°22' E 031°01'0 0.0
2018-Feb-12 11:59N 46°22' E 031°01'0 0.0
2018-Feb-12 11:26N 46°22' E 031°01'0 0.0
2018-Feb-12 10:56N 46°22' E 031°01'0 0.0
2018-Feb-12 10:20N 46°22' E 031°01'0 0.0
2018-Feb-12 09:56N 46°22' E 031°01'0 0.0
2018-Feb-12 08:02N 46°22' E 031°01'0 0.0
2018-Feb-12 05:47N 46°22' E 031°01'0 0.0
2018-Feb-12 05:29N 46°22' E 031°01'0 0.0
2018-Feb-12 04:59N 46°22' E 031°01'0 0.0
2018-Feb-12 04:20N 46°22' E 031°01'0 0.1
2018-Feb-12 03:56N 46°22' E 031°01'0 0.0
2018-Feb-12 03:26N 46°22' E 031°01'0 0.0
2018-Feb-12 02:59N 46°22' E 031°01'0 0.0
2018-Feb-12 02:29N 46°22' E 031°01'0 0.0
2018-Feb-12 01:59N 46°22' E 031°01'0 0.0
2018-Feb-12 01:29N 46°22' E 031°01'0 0.0
2018-Feb-11 05:52N 46°22' E 031°01'  
2018-Feb-06 10:58N 46°22' E 031°01'0 0.0
2018-Feb-06 10:04N 46°22' E 031°01'0 0.1
2018-Feb-06 09:58N 46°22' E 031°01'0 0.1
2018-Feb-06 08:49N 46°22' E 031°01'0 0.0
2018-Feb-05 18:19N 46°22' E 031°01'0 0.0
2018-Feb-05 16:33N 46°22' E 031°01'0 0.0
2018-Feb-04 17:00N 46°22' E 031°01'0 0.0
2018-Feb-04 15:18N 46°22' E 031°01'0 0.0
2018-Feb-04 14:54N 46°22' E 031°01'0 0.0
2018-Feb-04 12:51N 46°22' E 031°01'0 0.1
2018-Feb-04 12:30N 46°22' E 031°01'0 0.0
2018-Feb-04 11:54N 46°22' E 031°01'  
Track history (hours):
 
Tides and Currents Weather Stations Pressure Air Temp Water Temp Dewpoint Dewpoint Depression Visibility Wind Speed Wind Dir Waves Ship Positions

Osman Prince

Last reported at 2018-Feb-13 09:08 UTC. Time now 2018-Feb-20 07:38 UTC.
Position N 46°33' E 032°17'.

Length 151 m; draft 6 m.

MMSI: 620040000.

Date/timePositionNaut miles runAvg speedWind from/ knotsBaromVisibWave heightAir tempDewpointWater temp
2018-Feb-13 09:08N 46°33' E 032°17'2 9.7
2018-Feb-13 08:55N 46°33' E 032°14'511.4
2018-Feb-13 08:30N 46°32' E 032°07'611.2
2018-Feb-13 08:00N 46°33' E 031°59'611.4
2018-Feb-13 07:31N 46°35' E 031°51'611.2
2018-Feb-13 07:00N 46°36' E 031°43'2411.4
2018-Feb-13 04:55N 46°35' E 031°09'511.7
2018-Feb-13 04:30N 46°34' E 031°02'4 8.9
2018-Feb-13 04:00N 46°31' E 030°57'5 9.5
2018-Feb-13 03:30N 46°26' E 030°58'4 8.2
2018-Feb-13 03:00N 46°22' E 031°00'1 1.2
2018-Feb-13 02:30N 46°22' E 031°01'0 0.0
2018-Feb-13 00:48N 46°22' E 031°01'0 0.0
2018-Feb-12 23:56N 46°22' E 031°01'0 0.0
2018-Feb-12 22:02N 46°22' E 031°01'0 0.0
2018-Feb-12 20:47N 46°22' E 031°01'0 0.0
2018-Feb-12 20:29N 46°22' E 031°01'0 0.0
2018-Feb-12 19:56N 46°22' E 031°01'0 0.0
2018-Feb-12 18:17N 46°22' E 031°01'0 0.0
2018-Feb-12 16:59N 46°22' E 031°01'0 0.0
2018-Feb-12 16:29N 46°22' E 031°01'0 0.0
2018-Feb-12 15:50N 46°22' E 031°01'0 0.0
2018-Feb-12 15:17N 46°22' E 031°01'0 0.0
2018-Feb-12 14:56N 46°22' E 031°01'0 0.0
2018-Feb-12 14:29N 46°22' E 031°01'0 0.0
2018-Feb-12 13:56N 46°22' E 031°01'0 0.0
2018-Feb-12 13:29N 46°22' E 031°01'0 0.0
2018-Feb-12 12:59N 46°22' E 031°01'0 0.0
2018-Feb-12 12:11N 46°22' E 031°01'0 0.0
2018-Feb-12 11:59N 46°22' E 031°01'0 0.0
2018-Feb-12 11:26N 46°22' E 031°01'0 0.0
2018-Feb-12 10:56N 46°22' E 031°01'0 0.0
2018-Feb-12 10:20N 46°22' E 031°01'0 0.0
2018-Feb-12 09:56N 46°22' E 031°01'0 0.0
2018-Feb-12 08:02N 46°22' E 031°01'0 0.0
2018-Feb-12 05:47N 46°22' E 031°01'0 0.0
2018-Feb-12 05:29N 46°22' E 031°01'0 0.0
2018-Feb-12 04:59N 46°22' E 031°01'0 0.0
2018-Feb-12 04:20N 46°22' E 031°01'0 0.1
2018-Feb-12 03:56N 46°22' E 031°01'0 0.0
2018-Feb-12 03:26N 46°22' E 031°01'0 0.0
2018-Feb-12 02:59N 46°22' E 031°01'0 0.0
2018-Feb-12 02:29N 46°22' E 031°01'0 0.0
2018-Feb-12 01:59N 46°22' E 031°01'0 0.0
2018-Feb-12 01:29N 46°22' E 031°01'0 0.0
2018-Feb-11 05:52N 46°22' E 031°01'  
2018-Feb-06 10:58N 46°22' E 031°01'0 0.0
2018-Feb-06 10:04N 46°22' E 031°01'0 0.1
2018-Feb-06 09:58N 46°22' E 031°01'0 0.1
2018-Feb-06 08:49N 46°22' E 031°01'0 0.0
2018-Feb-05 18:19N 46°22' E 031°01'0 0.0
2018-Feb-05 16:33N 46°22' E 031°01'0 0.0
2018-Feb-04 17:00N 46°22' E 031°01'0 0.0
2018-Feb-04 15:18N 46°22' E 031°01'0 0.0
2018-Feb-04 14:54N 46°22' E 031°01'0 0.0
2018-Feb-04 12:51N 46°22' E 031°01'0 0.1
2018-Feb-04 12:30N 46°22' E 031°01'0 0.0
2018-Feb-04 11:54N 46°22' E 031°01'  

Dump ship's entire track history